createdAt,value
2023-03-29T00:01:03.270Z,43.40
2023-03-29T00:06:13.774Z,39.67
2023-03-29T00:11:22.652Z,41.57
2023-03-29T00:16:31.246Z,40.70
2023-03-29T00:21:38.442Z,40.37
2023-03-29T00:26:46.139Z,41.80
2023-03-29T00:31:54.661Z,41.27
2023-03-29T00:37:01.418Z,40.10
2023-03-29T00:42:11.901Z,39.97
2023-03-29T00:47:19.298Z,41.43
2023-03-29T00:52:29.212Z,39.87
2023-03-29T00:57:37.629Z,39.65
2023-03-29T01:02:46.540Z,41.43
2023-03-29T01:08:01.674Z,40.53
2023-03-29T01:13:16.364Z,40.07
2023-03-29T01:18:23.937Z,44.07
2023-03-29T01:23:46.942Z,40.58
2023-03-29T01:29:10.631Z,41.43
2023-03-29T01:34:26.396Z,43.27
2023-03-29T01:39:35.523Z,41.90
2023-03-29T01:44:59.443Z,41.30
2023-03-29T01:50:22.759Z,42.73
2023-03-29T01:55:39.945Z,42.70
2023-03-29T02:00:49.623Z,39.93
2023-03-29T02:05:58.419Z,41.97
2023-03-29T02:11:09.503Z,41.03
2023-03-29T02:16:20.812Z,42.80
2023-03-29T02:21:38.808Z,41.33
2023-03-29T02:26:46.915Z,42.33
2023-03-29T02:32:05.707Z,41.40
2023-03-29T02:37:18.673Z,40.40
2023-03-29T02:42:27.275Z,40.40
2023-03-29T02:47:39.780Z,39.97
2023-03-29T02:53:00.614Z,39.57
2023-03-29T02:58:10.682Z,40.80
2023-03-29T03:03:18.303Z,41.80
2023-03-29T03:08:27.889Z,42.76
2023-03-29T03:13:38.734Z,52.00
2023-03-29T03:18:46.454Z,46.07
2023-03-29T03:23:55.313Z,48.73
2023-03-29T03:29:02.646Z,50.37
2023-03-29T03:34:11.015Z,44.67
2023-03-29T03:39:18.642Z,44.13
2023-03-29T03:44:25.762Z,43.87
2023-03-29T03:49:37.499Z,45.63
2023-03-29T03:54:47.101Z,44.20
2023-03-29T03:59:54.231Z,43.47
2023-03-29T04:05:03.227Z,41.50
2023-03-29T04:10:11.843Z,43.97
2023-03-29T04:15:20.642Z,46.37
2023-03-29T04:20:29.952Z,43.42
2023-03-29T04:25:38.129Z,44.00
2023-03-29T04:30:48.537Z,46.50
2023-03-29T04:35:55.263Z,43.00
2023-03-29T04:41:05.240Z,40.57
2023-03-29T04:46:13.611Z,39.97
2023-03-29T04:51:22.792Z,39.13
2023-03-29T04:56:31.340Z,40.85
2023-03-29T05:01:39.898Z,39.13
2023-03-29T05:06:47.573Z,39.70
2023-03-29T05:11:54.784Z,38.97
2023-03-29T05:17:02.024Z,49.23
2023-03-29T05:22:10.918Z,41.13
2023-03-29T05:27:18.640Z,41.63
2023-03-29T05:32:26.340Z,48.37
2023-03-29T05:37:38.427Z,44.83
2023-03-29T05:42:45.576Z,45.23
2023-03-29T05:47:53.051Z,47.07
2023-03-29T05:53:00.675Z,47.67
2023-03-29T05:58:07.859Z,50.40
2023-03-29T06:03:28.241Z,47.37
2023-03-29T06:08:37.184Z,47.08
2023-03-29T06:13:47.931Z,48.13
2023-03-29T06:18:55.465Z,49.63
2023-03-29T06:24:04.989Z,52.43
2023-03-29T06:29:12.430Z,50.55
2023-03-29T06:34:22.016Z,53.02
2023-03-29T06:39:30.369Z,52.98
2023-03-29T06:44:38.291Z,55.03
2023-03-29T06:49:46.431Z,53.10
2023-03-29T06:54:55.007Z,63.53
2023-03-29T07:00:02.476Z,70.80
2023-03-29T07:05:13.741Z,61.80
2023-03-29T07:10:27.428Z,56.37
2023-03-29T07:15:36.225Z,60.25
2023-03-29T07:20:43.461Z,58.00
2023-03-29T07:25:54.400Z,56.37
2023-03-29T07:31:12.982Z,56.75
2023-03-29T07:41:28.110Z,52.48
2023-03-29T07:51:41.107Z,54.57
2023-03-29T07:56:51.689Z,53.60
2023-03-29T08:02:00.509Z,53.37
2023-03-29T08:07:07.818Z,54.63
2023-03-29T08:12:14.333Z,52.40
2023-03-29T08:17:21.564Z,53.42
2023-03-29T08:22:28.882Z,52.07
2023-03-29T08:32:50.333Z,51.53
2023-03-29T08:37:55.699Z,51.97
2023-03-29T08:43:32.897Z,52.00
2023-03-29T08:48:46.927Z,51.93
2023-03-29T08:54:06.816Z,52.27
2023-03-29T08:59:27.622Z,51.77
2023-03-29T09:04:49.226Z,51.73
2023-03-29T09:09:57.996Z,51.83
2023-03-29T09:15:24.344Z,53.03
2023-03-29T09:20:52.798Z,52.33
2023-03-29T09:26:16.257Z,53.73
2023-03-29T09:31:38.611Z,52.90
2023-03-29T09:37:07.094Z,52.90
2023-03-29T09:42:16.304Z,52.60
2023-03-29T09:47:35.020Z,52.80
2023-03-29T09:52:41.628Z,52.57
2023-03-29T09:57:50.266Z,53.17
2023-03-29T10:03:00.762Z,52.17
2023-03-29T10:08:21.187Z,53.50
2023-03-29T10:13:34.484Z,52.73
2023-03-29T10:18:44.318Z,52.60
2023-03-29T10:23:54.873Z,52.83
2023-03-29T10:29:07.724Z,52.30
2023-03-29T10:34:18.796Z,52.03
2023-03-29T10:39:31.116Z,51.98
2023-03-29T10:44:39.782Z,51.53
2023-03-29T10:49:59.698Z,51.53
2023-03-29T10:55:08.103Z,51.50
2023-03-29T11:00:34.521Z,51.07
2023-03-29T11:06:04.872Z,50.83
2023-03-29T11:11:41.429Z,51.23
2023-03-29T11:17:18.465Z,50.40
2023-03-29T11:22:51.988Z,50.98
2023-03-29T11:28:26.713Z,50.23
2023-03-29T11:33:38.508Z,50.40
2023-03-29T11:39:17.222Z,49.77
2023-03-29T11:44:33.825Z,50.43
2023-03-29T11:49:49.447Z,49.80
2023-03-29T11:55:13.150Z,49.93
2023-03-29T12:00:33.499Z,50.17
2023-03-29T12:06:00.138Z,50.80
2023-03-29T12:11:21.362Z,50.33
2023-03-29T12:16:45.311Z,49.80
2023-03-29T12:21:54.749Z,49.77
2023-03-29T12:27:33.430Z,50.40
2023-03-29T12:33:15.327Z,50.10
2023-03-29T12:38:30.588Z,50.07
2023-03-29T12:43:43.412Z,50.40
2023-03-29T12:48:55.295Z,50.03
2023-03-29T12:54:16.858Z,50.67
2023-03-29T12:59:40.856Z,49.90
2023-03-29T13:04:57.848Z,50.13
2023-03-29T13:10:33.560Z,49.77
2023-03-29T13:15:42.982Z,49.70
2023-03-29T13:21:07.262Z,50.50
2023-03-29T13:26:36.173Z,50.97
2023-03-29T13:31:59.615Z,50.13
2023-03-29T13:37:43.057Z,50.43
2023-03-29T13:42:57.983Z,49.97
2023-03-29T13:48:26.463Z,51.00
2023-03-29T13:53:38.615Z,50.50
2023-03-29T13:58:59.262Z,50.43
2023-03-29T14:04:09.116Z,50.00
2023-03-29T14:09:19.936Z,50.83
2023-03-29T14:14:30.543Z,51.10
2023-03-29T14:19:40.503Z,50.77
2023-03-29T14:24:57.442Z,51.50
2023-03-29T14:30:08.190Z,50.80
2023-03-29T14:35:14.957Z,50.73
2023-03-29T14:40:23.145Z,50.90
2023-03-29T14:45:30.009Z,51.02
2023-03-29T14:50:37.609Z,51.67
2023-03-29T14:55:46.672Z,51.20
2023-03-29T15:00:55.246Z,51.00
2023-03-29T15:06:05.655Z,51.23
2023-03-29T15:11:25.000Z,51.20
2023-03-29T15:16:33.626Z,51.10
2023-03-29T15:21:43.408Z,52.87
2023-03-29T15:27:06.908Z,56.27
2023-03-29T15:32:38.167Z,52.63
2023-03-29T15:37:45.816Z,53.30
2023-03-29T15:42:53.143Z,54.30
2023-03-29T15:48:05.036Z,53.40
2023-03-29T15:53:15.624Z,53.93
2023-03-29T15:58:27.938Z,55.53
2023-03-29T16:03:36.455Z,55.75
2023-03-29T16:08:43.694Z,59.47
2023-03-29T16:13:51.701Z,59.07
2023-03-29T16:18:58.528Z,55.25
2023-03-29T16:24:07.621Z,91.87
2023-03-29T16:29:17.518Z,55.03
2023-03-29T16:34:24.526Z,67.83
2023-03-29T16:39:32.300Z,95.40
2023-03-29T16:44:42.241Z,56.35
2023-03-29T16:49:49.712Z,69.37
2023-03-29T16:54:56.802Z,58.93
2023-03-29T17:00:06.594Z,56.10
2023-03-29T17:05:14.364Z,59.67
2023-03-29T17:10:22.873Z,61.43
2023-03-29T17:15:30.713Z,65.33
2023-03-29T17:20:40.710Z,76.33
2023-03-29T17:25:48.304Z,76.17
2023-03-29T17:30:56.493Z,78.33
2023-03-29T17:36:04.679Z,71.43
2023-03-29T17:41:11.739Z,66.60
2023-03-29T17:46:21.313Z,78.40
2023-03-29T17:51:29.521Z,59.27
2023-03-29T17:56:36.664Z,62.53
2023-03-29T18:01:43.865Z,58.13
2023-03-29T18:06:51.219Z,58.87
2023-03-29T18:12:00.489Z,58.50
2023-03-29T18:17:07.332Z,57.50
2023-03-29T18:22:15.136Z,57.57
2023-03-29T18:27:23.136Z,58.77
2023-03-29T18:32:32.906Z,67.00
2023-03-29T18:37:40.094Z,64.12
2023-03-29T18:42:47.402Z,59.77
2023-03-29T18:47:55.476Z,59.67
2023-03-29T18:53:03.150Z,56.90
2023-03-29T18:58:12.556Z,57.53
2023-03-29T19:03:20.396Z,59.90
2023-03-29T19:08:28.572Z,57.23
2023-03-29T19:13:37.263Z,61.15
2023-03-29T19:18:46.266Z,58.20
2023-03-29T19:23:53.551Z,64.53
2023-03-29T19:29:01.705Z,74.50
2023-03-29T19:34:10.342Z,72.63
2023-03-29T19:39:17.979Z,65.87
2023-03-29T19:44:25.373Z,60.17
2023-03-29T19:49:34.368Z,59.73
2023-03-29T19:54:43.372Z,56.30
2023-03-29T19:59:50.076Z,56.17
2023-03-29T20:04:58.022Z,55.83
2023-03-29T20:10:05.452Z,56.90
2023-03-29T20:15:13.066Z,56.97
2023-03-29T20:20:19.882Z,59.80
2023-03-29T20:25:27.705Z,60.77
2023-03-29T20:30:35.468Z,60.90
2023-03-29T20:35:43.307Z,59.00
2023-03-29T20:40:50.365Z,57.83
2023-03-29T20:45:57.814Z,54.57
2023-03-29T20:51:06.327Z,52.67
2023-03-29T20:56:15.390Z,52.57
2023-03-29T21:01:22.619Z,55.20
2023-03-29T21:06:30.672Z,53.23
2023-03-29T21:11:38.821Z,52.65
2023-03-29T21:16:47.555Z,52.73
2023-03-29T21:21:57.080Z,53.93
2023-03-29T21:27:05.372Z,54.43
2023-03-29T21:32:12.406Z,62.20
2023-03-29T21:37:19.022Z,58.13
2023-03-29T21:42:26.496Z,84.03
2023-03-29T21:47:34.230Z,60.83
2023-03-29T21:52:41.245Z,58.03
2023-03-29T22:02:53.513Z,56.33
2023-03-29T22:08:02.320Z,58.73
2023-03-29T22:13:09.791Z,54.97
2023-03-29T22:18:18.929Z,57.57
2023-03-29T22:23:26.109Z,56.53
2023-03-29T22:28:37.069Z,57.08
2023-03-29T22:33:44.450Z,52.70
2023-03-29T22:44:04.350Z,53.23
2023-03-29T22:49:11.712Z,57.20
2023-03-29T22:54:18.477Z,53.70
2023-03-29T22:59:28.662Z,55.07
2023-03-29T23:04:37.819Z,55.90
2023-03-29T23:09:44.410Z,57.37
2023-03-29T23:25:07.886Z,55.35
2023-03-29T23:30:14.939Z,56.70
2023-03-29T23:35:23.115Z,58.60
2023-03-29T23:45:37.560Z,55.08
2023-03-29T23:50:46.966Z,53.23
2023-03-29T23:55:54.508Z,62.43
